sensor_id;sensor_type;location;lat;lon;timestamp;temperature;humidity
39983;DHT22;25670;44.782;10.356;2023-01-09T00:00:20;7.90;99.90
39983;DHT22;25670;44.782;10.356;2023-01-09T00:02:47;7.80;99.90
39983;DHT22;25670;44.782;10.356;2023-01-09T00:05:15;7.80;99.90
39983;DHT22;25670;44.782;10.356;2023-01-09T00:07:42;7.80;99.90
39983;DHT22;25670;44.782;10.356;2023-01-09T00:10:09;7.80;99.90
39983;DHT22;25670;44.782;10.356;2023-01-09T00:12:36;7.80;99.90
39983;DHT22;25670;44.782;10.356;2023-01-09T00:15:03;7.80;99.90
39983;DHT22;25670;44.782;10.356;2023-01-09T00:17:35;7.40;99.90
39983;DHT22;25670;44.782;10.356;2023-01-09T00:20:02;7.80;99.90
39983;DHT22;25670;44.782;10.356;2023-01-09T00:22:28;7.90;99.90
39983;DHT22;25670;44.782;10.356;2023-01-09T00:24:55;7.90;99.90
39983;DHT22;25670;44.782;10.356;2023-01-09T00:29:48;7.80;99.90
39983;DHT22;25670;44.782;10.356;2023-01-09T00:34:41;7.90;99.90
39983;DHT22;25670;44.782;10.356;2023-01-09T00:39:41;7.80;99.90
39983;DHT22;25670;44.782;10.356;2023-01-09T00:42:12;7.80;99.90
39983;DHT22;25670;44.782;10.356;2023-01-09T00:44:47;7.80;99.90
39983;DHT22;25670;44.782;10.356;2023-01-09T00:47:29;7.80;99.90
39983;DHT22;25670;44.782;10.356;2023-01-09T00:49:59;7.60;99.90
39983;DHT22;25670;44.782;10.356;2023-01-09T00:52:30;7.70;99.90
39983;DHT22;25670;44.782;10.356;2023-01-09T00:54:58;7.80;99.90
39983;DHT22;25670;44.782;10.356;2023-01-09T00:57:24;7.80;99.90
39983;DHT22;25670;44.782;10.356;2023-01-09T00:59:51;7.90;99.90
39983;DHT22;25670;44.782;10.356;2023-01-09T01:02:17;8.00;99.90
39983;DHT22;25670;44.782;10.356;2023-01-09T01:04:46;7.80;99.90
39983;DHT22;25670;44.782;10.356;2023-01-09T01:07:32;7.80;99.90
39983;DHT22;25670;44.782;10.356;2023-01-09T01:10:16;8.60;99.90
39983;DHT22;25670;44.782;10.356;2023-01-09T01:12:45;7.70;99.90
39983;DHT22;25670;44.782;10.356;2023-01-09T01:15:12;7.60;99.90
39983;DHT22;25670;44.782;10.356;2023-01-09T01:17:39;7.70;99.90
39983;DHT22;25670;44.782;10.356;2023-01-09T01:20:10;7.70;99.90
39983;DHT22;25670;44.782;10.356;2023-01-09T01:22:36;7.60;99.90
39983;DHT22;25670;44.782;10.356;2023-01-09T01:25:04;7.80;99.90
39983;DHT22;25670;44.782;10.356;2023-01-09T01:27:30;7.70;99.90
39983;DHT22;25670;44.782;10.356;2023-01-09T01:32:23;7.70;99.90
39983;DHT22;25670;44.782;10.356;2023-01-09T01:34:49;7.80;99.90
39983;DHT22;25670;44.782;10.356;2023-01-09T01:37:16;7.30;99.90
39983;DHT22;25670;44.782;10.356;2023-01-09T01:39:42;7.70;99.90
39983;DHT22;25670;44.782;10.356;2023-01-09T01:42:11;7.70;99.90
39983;DHT22;25670;44.782;10.356;2023-01-09T01:44:58;7.60;99.90
39983;DHT22;25670;44.782;10.356;2023-01-09T01:47:35;7.60;99.90
39983;DHT22;25670;44.782;10.356;2023-01-09T01:50:09;7.60;99.90
39983;DHT22;25670;44.782;10.356;2023-01-09T01:52:37;7.60;99.90
39983;DHT22;25670;44.782;10.356;2023-01-09T01:55:06;7.60;99.90
39983;DHT22;25670;44.782;10.356;2023-01-09T01:57:34;7.50;99.90
39983;DHT22;25670;44.782;10.356;2023-01-09T02:00:02;7.60;99.90
39983;DHT22;25670;44.782;10.356;2023-01-09T02:02:31;7.60;99.90
39983;DHT22;25670;44.782;10.356;2023-01-09T02:04:58;7.40;99.90
39983;DHT22;25670;44.782;10.356;2023-01-09T02:09:52;7.50;99.90
39983;DHT22;25670;44.782;10.356;2023-01-09T02:14:54;7.40;99.90
39983;DHT22;25670;44.782;10.356;2023-01-09T02:25:41;7.50;99.90
39983;DHT22;25670;44.782;10.356;2023-01-09T02:31:14;7.40;99.90
39983;DHT22;25670;44.782;10.356;2023-01-09T02:34:07;7.50;99.90
39983;DHT22;25670;44.782;10.356;2023-01-09T02:39:50;8.10;99.90
39983;DHT22;25670;44.782;10.356;2023-01-09T02:42:23;7.60;99.90
39983;DHT22;25670;44.782;10.356;2023-01-09T02:44:50;7.40;99.90
39983;DHT22;25670;44.782;10.356;2023-01-09T02:49:46;7.50;99.90
39983;DHT22;25670;44.782;10.356;2023-01-09T02:55:33;8.00;99.90
39983;DHT22;25670;44.782;10.356;2023-01-09T03:04:34;7.40;99.90
39983;DHT22;25670;44.782;10.356;2023-01-09T03:07:07;7.70;99.90
39983;DHT22;25670;44.782;10.356;2023-01-09T03:09:40;7.50;99.90
39983;DHT22;25670;44.782;10.356;2023-01-09T03:12:13;7.50;99.90
39983;DHT22;25670;44.782;10.356;2023-01-09T03:14:48;8.10;99.90
39983;DHT22;25670;44.782;10.356;2023-01-09T03:17:24;7.50;99.90
39983;DHT22;25670;44.782;10.356;2023-01-09T03:19:52;7.40;99.90
39983;DHT22;25670;44.782;10.356;2023-01-09T03:22:19;7.60;99.90
39983;DHT22;25670;44.782;10.356;2023-01-09T03:24:46;7.60;99.90
39983;DHT22;25670;44.782;10.356;2023-01-09T03:27:12;7.40;99.90
39983;DHT22;25670;44.782;10.356;2023-01-09T03:29:39;8.00;99.90
39983;DHT22;25670;44.782;10.356;2023-01-09T03:32:05;7.50;99.90
39983;DHT22;25670;44.782;10.356;2023-01-09T03:34:31;7.70;99.90
39983;DHT22;25670;44.782;10.356;2023-01-09T03:36:58;7.40;99.90
39983;DHT22;25670;44.782;10.356;2023-01-09T03:39:24;7.40;99.90
39983;DHT22;25670;44.782;10.356;2023-01-09T03:41:50;7.10;99.90
39983;DHT22;25670;44.782;10.356;2023-01-09T03:46:43;7.40;99.90
39983;DHT22;25670;44.782;10.356;2023-01-09T03:49:10;7.40;99.90
39983;DHT22;25670;44.782;10.356;2023-01-09T03:51:36;7.40;99.90
39983;DHT22;25670;44.782;10.356;2023-01-09T03:54:02;7.40;99.90
39983;DHT22;25670;44.782;10.356;2023-01-09T03:56:29;7.30;99.90
39983;DHT22;25670;44.782;10.356;2023-01-09T03:58:55;7.40;99.90
39983;DHT22;25670;44.782;10.356;2023-01-09T04:03:47;7.50;99.90
39983;DHT22;25670;44.782;10.356;2023-01-09T04:06:14;7.50;99.90
39983;DHT22;25670;44.782;10.356;2023-01-09T04:08:40;7.50;99.90
39983;DHT22;25670;44.782;10.356;2023-01-09T04:13:33;7.50;99.90
39983;DHT22;25670;44.782;10.356;2023-01-09T04:15:59;7.50;99.90
39983;DHT22;25670;44.782;10.356;2023-01-09T04:18:25;8.30;99.90
39983;DHT22;25670;44.782;10.356;2023-01-09T04:25:45;7.50;99.90
39983;DHT22;25670;44.782;10.356;2023-01-09T04:28:12;7.50;99.90
39983;DHT22;25670;44.782;10.356;2023-01-09T04:30:38;7.40;99.90
39983;DHT22;25670;44.782;10.356;2023-01-09T04:33:05;7.40;99.90
39983;DHT22;25670;44.782;10.356;2023-01-09T04:37:57;7.40;99.90
39983;DHT22;25670;44.782;10.356;2023-01-09T04:40:25;8.60;99.90
39983;DHT22;25670;44.782;10.356;2023-01-09T04:45:18;7.40;99.90
39983;DHT22;25670;44.782;10.356;2023-01-09T04:47:44;7.40;99.90
39983;DHT22;25670;44.782;10.356;2023-01-09T04:50:11;7.50;99.90
39983;DHT22;25670;44.782;10.356;2023-01-09T04:52:38;8.50;99.90
39983;DHT22;25670;44.782;10.356;2023-01-09T04:55:05;7.30;99.90
39983;DHT22;25670;44.782;10.356;2023-01-09T04:57:32;7.60;99.90
39983;DHT22;25670;44.782;10.356;2023-01-09T04:59:59;7.50;99.90
39983;DHT22;25670;44.782;10.356;2023-01-09T05:02:25;7.90;99.90
39983;DHT22;25670;44.782;10.356;2023-01-09T05:04:51;7.50;99.90
39983;DHT22;25670;44.782;10.356;2023-01-09T05:07:17;7.50;99.90
39983;DHT22;25670;44.782;10.356;2023-01-09T05:09:43;7.60;99.90
39983;DHT22;25670;44.782;10.356;2023-01-09T05:12:10;7.50;99.90
39983;DHT22;25670;44.782;10.356;2023-01-09T05:14:36;7.60;99.90
39983;DHT22;25670;44.782;10.356;2023-01-09T05:17:02;7.30;99.90
39983;DHT22;25670;44.782;10.356;2023-01-09T05:19:28;7.50;99.90
39983;DHT22;25670;44.782;10.356;2023-01-09T05:21:55;7.60;99.90
39983;DHT22;25670;44.782;10.356;2023-01-09T05:24:21;7.50;99.90
39983;DHT22;25670;44.782;10.356;2023-01-09T05:26:47;7.70;99.90
39983;DHT22;25670;44.782;10.356;2023-01-09T05:29:13;7.50;99.90
39983;DHT22;25670;44.782;10.356;2023-01-09T05:34:06;7.40;99.90
39983;DHT22;25670;44.782;10.356;2023-01-09T05:41:27;7.60;99.90
39983;DHT22;25670;44.782;10.356;2023-01-09T05:43:53;8.90;99.90
39983;DHT22;25670;44.782;10.356;2023-01-09T05:46:20;7.60;99.90
39983;DHT22;25670;44.782;10.356;2023-01-09T05:48:46;7.70;99.90
39983;DHT22;25670;44.782;10.356;2023-01-09T05:51:12;7.60;99.90
39983;DHT22;25670;44.782;10.356;2023-01-09T05:53:38;7.60;99.90
39983;DHT22;25670;44.782;10.356;2023-01-09T05:56:05;7.50;99.90
39983;DHT22;25670;44.782;10.356;2023-01-09T05:58:31;7.50;99.90
39983;DHT22;25670;44.782;10.356;2023-01-09T06:00:57;7.60;99.90
39983;DHT22;25670;44.782;10.356;2023-01-09T06:03:24;7.60;99.90
39983;DHT22;25670;44.782;10.356;2023-01-09T06:05:50;7.50;99.90
39983;DHT22;25670;44.782;10.356;2023-01-09T06:08:19;7.60;99.90
39983;DHT22;25670;44.782;10.356;2023-01-09T06:30:20;7.70;99.90
39983;DHT22;25670;44.782;10.356;2023-01-09T06:32:47;7.60;99.90
39983;DHT22;25670;44.782;10.356;2023-01-09T06:35:15;7.60;99.90
39983;DHT22;25670;44.782;10.356;2023-01-09T06:37:46;7.60;99.90
39983;DHT22;25670;44.782;10.356;2023-01-09T06:40:13;7.60;99.90
39983;DHT22;25670;44.782;10.356;2023-01-09T06:42:43;7.60;99.90
39983;DHT22;25670;44.782;10.356;2023-01-09T06:45:10;7.60;99.90
39983;DHT22;25670;44.782;10.356;2023-01-09T06:50:05;7.60;99.90
39983;DHT22;25670;44.782;10.356;2023-01-09T06:54:58;7.70;99.90
39983;DHT22;25670;44.782;10.356;2023-01-09T06:59:51;7.40;99.90
39983;DHT22;25670;44.782;10.356;2023-01-09T07:02:19;9.50;99.90
39983;DHT22;25670;44.782;10.356;2023-01-09T07:12:06;7.40;99.90
39983;DHT22;25670;44.782;10.356;2023-01-09T07:14:32;7.10;99.90
39983;DHT22;25670;44.782;10.356;2023-01-09T07:24:18;7.40;99.90
39983;DHT22;25670;44.782;10.356;2023-01-09T07:26:45;7.40;99.90
39983;DHT22;25670;44.782;10.356;2023-01-09T07:31:38;7.50;99.90
39983;DHT22;25670;44.782;10.356;2023-01-09T07:36:31;7.60;99.90
39983;DHT22;25670;44.782;10.356;2023-01-09T07:38:57;7.60;99.90
39983;DHT22;25670;44.782;10.356;2023-01-09T07:56:02;7.70;99.90
39983;DHT22;25670;44.782;10.356;2023-01-09T08:00:55;7.70;99.90
39983;DHT22;25670;44.782;10.356;2023-01-09T08:25:21;7.90;99.90
39983;DHT22;25670;44.782;10.356;2023-01-09T08:30:15;8.00;99.90
39983;DHT22;25670;44.782;10.356;2023-01-09T08:35:09;8.00;99.90
39983;DHT22;25670;44.782;10.356;2023-01-09T08:45:13;8.20;99.90
39983;DHT22;25670;44.782;10.356;2023-01-09T08:55:17;7.90;99.90
39983;DHT22;25670;44.782;10.356;2023-01-09T08:57:50;8.00;99.90
39983;DHT22;25670;44.782;10.356;2023-01-09T09:00:18;7.90;99.90
39983;DHT22;25670;44.782;10.356;2023-01-09T09:10:06;7.90;99.90
39983;DHT22;25670;44.782;10.356;2023-01-09T09:14:59;8.10;99.90
39983;DHT22;25670;44.782;10.356;2023-01-09T09:17:38;8.30;99.90
39983;DHT22;25670;44.782;10.356;2023-01-09T09:20:06;9.70;99.90
39983;DHT22;25670;44.782;10.356;2023-01-09T09:37:13;8.40;99.90
39983;DHT22;25670;44.782;10.356;2023-01-09T09:55:22;8.20;99.90
39983;DHT22;25670;44.782;10.356;2023-01-09T09:57:51;8.20;99.90
39983;DHT22;25670;44.782;10.356;2023-01-09T10:00:20;8.20;99.90
39983;DHT22;25670;44.782;10.356;2023-01-09T10:03:03;8.20;99.90
39983;DHT22;25670;44.782;10.356;2023-01-09T10:05:36;8.20;99.90
39983;DHT22;25670;44.782;10.356;2023-01-09T10:08:29;8.50;99.90
39983;DHT22;25670;44.782;10.356;2023-01-09T10:16:35;8.20;99.90
39983;DHT22;25670;44.782;10.356;2023-01-09T10:27:26;8.40;99.90
39983;DHT22;25670;44.782;10.356;2023-01-09T10:32:43;7.80;99.90
39983;DHT22;25670;44.782;10.356;2023-01-09T10:37:44;7.00;99.90
39983;DHT22;25670;44.782;10.356;2023-01-09T10:40:17;8.50;99.90
39983;DHT22;25670;44.782;10.356;2023-01-09T10:42:49;8.50;99.90
39983;DHT22;25670;44.782;10.356;2023-01-09T10:48:22;8.60;99.90
39983;DHT22;25670;44.782;10.356;2023-01-09T10:50:50;8.70;99.90
39983;DHT22;25670;44.782;10.356;2023-01-09T10:53:32;8.90;99.90
39983;DHT22;25670;44.782;10.356;2023-01-09T10:56:10;9.00;99.90
39983;DHT22;25670;44.782;10.356;2023-01-09T11:01:06;9.10;99.90
39983;DHT22;25670;44.782;10.356;2023-01-09T11:06:01;8.90;99.90
39983;DHT22;25670;44.782;10.356;2023-01-09T11:08:39;9.20;99.90
39983;DHT22;25670;44.782;10.356;2023-01-09T11:11:08;10.60;99.90
39983;DHT22;25670;44.782;10.356;2023-01-09T11:13:36;9.80;99.90
39983;DHT22;25670;44.782;10.356;2023-01-09T11:18:59;9.60;99.90
39983;DHT22;25670;44.782;10.356;2023-01-09T11:21:39;9.90;99.90
39983;DHT22;25670;44.782;10.356;2023-01-09T11:26:53;9.90;99.90
39983;DHT22;25670;44.782;10.356;2023-01-09T11:29:40;9.90;99.90
39983;DHT22;25670;44.782;10.356;2023-01-09T11:32:20;9.80;99.90
39983;DHT22;25670;44.782;10.356;2023-01-09T11:37:26;10.00;99.90
39983;DHT22;25670;44.782;10.356;2023-01-09T11:40:02;10.50;99.90
39983;DHT22;25670;44.782;10.356;2023-01-09T11:45:23;10.00;99.90
39983;DHT22;25670;44.782;10.356;2023-01-09T12:06:45;11.40;99.90
39983;DHT22;25670;44.782;10.356;2023-01-09T12:09:05;11.80;99.90
39983;DHT22;25670;44.782;10.356;2023-01-09T12:12:45;11.80;99.90
39983;DHT22;25670;44.782;10.356;2023-01-09T12:14:56;12.00;99.90
39983;DHT22;25670;44.782;10.356;2023-01-09T12:20:15;12.10;99.90
39983;DHT22;25670;44.782;10.356;2023-01-09T12:36:55;14.60;99.90
39983;DHT22;25670;44.782;10.356;2023-01-09T12:56:42;15.30;99.90
39983;DHT22;25670;44.782;10.356;2023-01-09T12:59:44;15.70;99.90
39983;DHT22;25670;44.782;10.356;2023-01-09T13:04:52;15.20;99.90
39983;DHT22;25670;44.782;10.356;2023-01-09T13:07:43;16.10;99.90
39983;DHT22;25670;44.782;10.356;2023-01-09T13:10:22;16.30;99.90
39983;DHT22;25670;44.782;10.356;2023-01-09T13:12:51;15.80;99.90
39983;DHT22;25670;44.782;10.356;2023-01-09T13:15:32;16.40;99.90
39983;DHT22;25670;44.782;10.356;2023-01-09T13:18:03;16.50;99.90
39983;DHT22;25670;44.782;10.356;2023-01-09T13:20:52;16.70;99.90
39983;DHT22;25670;44.782;10.356;2023-01-09T13:26:06;17.20;99.90
39983;DHT22;25670;44.782;10.356;2023-01-09T13:28:40;17.20;99.90
39983;DHT22;25670;44.782;10.356;2023-01-09T13:34:08;17.20;99.90
39983;DHT22;25670;44.782;10.356;2023-01-09T13:36:38;17.40;99.90
39983;DHT22;25670;44.782;10.356;2023-01-09T13:39:22;17.20;99.90
39983;DHT22;25670;44.782;10.356;2023-01-09T13:41:57;17.60;99.90
39983;DHT22;25670;44.782;10.356;2023-01-09T13:44:44;17.10;99.90
39983;DHT22;25670;44.782;10.356;2023-01-09T13:47:24;16.50;99.90
39983;DHT22;25670;44.782;10.356;2023-01-09T13:52:38;15.80;99.90
39983;DHT22;25670;44.782;10.356;2023-01-09T14:06:01;18.90;99.90
39983;DHT22;25670;44.782;10.356;2023-01-09T14:13:24;19.60;99.90
39983;DHT22;25670;44.782;10.356;2023-01-09T14:16:02;19.90;99.90
39983;DHT22;25670;44.782;10.356;2023-01-09T14:18:34;19.80;99.90
39983;DHT22;25670;44.782;10.356;2023-01-09T14:21:09;19.90;99.90
39983;DHT22;25670;44.782;10.356;2023-01-09T14:23:36;19.60;99.90
39983;DHT22;25670;44.782;10.356;2023-01-09T14:26:04;19.40;99.90
39983;DHT22;25670;44.782;10.356;2023-01-09T14:28:32;18.90;99.90
39983;DHT22;25670;44.782;10.356;2023-01-09T14:33:29;17.60;99.90
39983;DHT22;25670;44.782;10.356;2023-01-09T14:39:01;18.50;99.90
39983;DHT22;25670;44.782;10.356;2023-01-09T14:41:33;18.40;99.90
39983;DHT22;25670;44.782;10.356;2023-01-09T14:44:34;18.20;99.90
39983;DHT22;25670;44.782;10.356;2023-01-09T14:47:33;16.70;99.90
39983;DHT22;25670;44.782;10.356;2023-01-09T14:52:34;18.70;99.90
39983;DHT22;25670;44.782;10.356;2023-01-09T14:55:11;18.50;99.90
39983;DHT22;25670;44.782;10.356;2023-01-09T14:57:41;20.20;99.90
39983;DHT22;25670;44.782;10.356;2023-01-09T15:00:17;17.70;99.90
39983;DHT22;25670;44.782;10.356;2023-01-09T15:02:45;17.60;99.90
39983;DHT22;25670;44.782;10.356;2023-01-09T15:05:22;17.30;99.90
39983;DHT22;25670;44.782;10.356;2023-01-09T15:07:51;16.90;99.90
39983;DHT22;25670;44.782;10.356;2023-01-09T15:10:25;16.50;99.90
39983;DHT22;25670;44.782;10.356;2023-01-09T15:12:54;15.70;99.90
39983;DHT22;25670;44.782;10.356;2023-01-09T15:15:21;16.40;99.90
39983;DHT22;25670;44.782;10.356;2023-01-09T15:18:07;16.50;99.90
39983;DHT22;25670;44.782;10.356;2023-01-09T15:20:35;16.70;99.90
39983;DHT22;25670;44.782;10.356;2023-01-09T15:23:02;15.90;99.90
39983;DHT22;25670;44.782;10.356;2023-01-09T15:25:38;16.50;99.90
39983;DHT22;25670;44.782;10.356;2023-01-09T15:30:59;16.30;99.90
39983;DHT22;25670;44.782;10.356;2023-01-09T15:33:26;16.50;99.90
39983;DHT22;25670;44.782;10.356;2023-01-09T15:35:53;16.00;99.90
39983;DHT22;25670;44.782;10.356;2023-01-09T15:38:26;15.70;99.90
39983;DHT22;25670;44.782;10.356;2023-01-09T15:40:59;15.30;99.90
39983;DHT22;25670;44.782;10.356;2023-01-09T15:43:27;14.80;99.90
39983;DHT22;25670;44.782;10.356;2023-01-09T15:45:55;14.10;99.90
39983;DHT22;25670;44.782;10.356;2023-01-09T15:48:24;13.50;99.90
39983;DHT22;25670;44.782;10.356;2023-01-09T15:50:57;12.90;99.90
39983;DHT22;25670;44.782;10.356;2023-01-09T15:53:26;12.60;99.90
39983;DHT22;25670;44.782;10.356;2023-01-09T15:58:38;11.00;99.90
39983;DHT22;25670;44.782;10.356;2023-01-09T16:01:39;10.10;99.90
39983;DHT22;25670;44.782;10.356;2023-01-09T16:04:14;10.10;99.90
39983;DHT22;25670;44.782;10.356;2023-01-09T16:06:44;9.70;99.90
39983;DHT22;25670;44.782;10.356;2023-01-09T16:09:24;9.40;99.90
39983;DHT22;25670;44.782;10.356;2023-01-09T16:11:59;9.20;99.90
39983;DHT22;25670;44.782;10.356;2023-01-09T16:14:37;8.90;99.90
39983;DHT22;25670;44.782;10.356;2023-01-09T16:17:14;8.60;99.90
39983;DHT22;25670;44.782;10.356;2023-01-09T16:19:55;8.60;99.90
39983;DHT22;25670;44.782;10.356;2023-01-09T16:22:29;8.40;99.90
39983;DHT22;25670;44.782;10.356;2023-01-09T16:25:01;9.40;99.90
39983;DHT22;25670;44.782;10.356;2023-01-09T16:27:30;8.00;99.90
39983;DHT22;25670;44.782;10.356;2023-01-09T16:30:00;7.80;99.90
39983;DHT22;25670;44.782;10.356;2023-01-09T16:32:32;7.70;99.90
39983;DHT22;25670;44.782;10.356;2023-01-09T16:35:13;7.60;99.90
39983;DHT22;25670;44.782;10.356;2023-01-09T16:37:40;7.40;99.90
39983;DHT22;25670;44.782;10.356;2023-01-09T16:40:15;7.50;99.90
39983;DHT22;25670;44.782;10.356;2023-01-09T16:42:57;7.50;99.90
39983;DHT22;25670;44.782;10.356;2023-01-09T16:45:37;8.30;99.90
39983;DHT22;25670;44.782;10.356;2023-01-09T16:48:16;7.50;99.90
39983;DHT22;25670;44.782;10.356;2023-01-09T16:53:23;7.30;99.90
39983;DHT22;25670;44.782;10.356;2023-01-09T16:55:55;9.40;99.90
39983;DHT22;25670;44.782;10.356;2023-01-09T16:58:29;7.10;99.90
39983;DHT22;25670;44.782;10.356;2023-01-09T17:00:57;5.00;99.90
39983;DHT22;25670;44.782;10.356;2023-01-09T17:03:23;7.40;99.90
39983;DHT22;25670;44.782;10.356;2023-01-09T17:05:55;6.90;99.90
39983;DHT22;25670;44.782;10.356;2023-01-09T17:08:28;6.90;99.90
39983;DHT22;25670;44.782;10.356;2023-01-09T17:10:56;6.80;99.90
39983;DHT22;25670;44.782;10.356;2023-01-09T17:13:22;7.20;99.90
39983;DHT22;25670;44.782;10.356;2023-01-09T17:15:54;6.90;99.90
39983;DHT22;25670;44.782;10.356;2023-01-09T17:18:24;7.00;99.90
39983;DHT22;25670;44.782;10.356;2023-01-09T17:20:53;7.10;99.90
39983;DHT22;25670;44.782;10.356;2023-01-09T17:25:48;7.20;99.90
39983;DHT22;25670;44.782;10.356;2023-01-09T17:31:04;7.20;99.90
39983;DHT22;25670;44.782;10.356;2023-01-09T17:33:32;7.20;99.90
39983;DHT22;25670;44.782;10.356;2023-01-09T17:40:52;6.90;99.90
39983;DHT22;25670;44.782;10.356;2023-01-09T17:43:21;7.00;99.90
39983;DHT22;25670;44.782;10.356;2023-01-09T17:48:16;6.90;99.90
39983;DHT22;25670;44.782;10.356;2023-01-09T17:50:43;6.80;99.90
39983;DHT22;25670;44.782;10.356;2023-01-09T17:53:10;6.70;99.90
39983;DHT22;25670;44.782;10.356;2023-01-09T17:55:39;6.50;99.90
39983;DHT22;25670;44.782;10.356;2023-01-09T18:00:34;6.50;99.90
39983;DHT22;25670;44.782;10.356;2023-01-09T18:03:05;6.50;99.90
39983;DHT22;25670;44.782;10.356;2023-01-09T18:05:33;6.50;99.90
39983;DHT22;25670;44.782;10.356;2023-01-09T18:12:55;6.30;99.90
39983;DHT22;25670;44.782;10.356;2023-01-09T18:15:22;6.30;99.90
39983;DHT22;25670;44.782;10.356;2023-01-09T18:17:52;6.30;99.90
39983;DHT22;25670;44.782;10.356;2023-01-09T18:20:18;6.20;99.90
39983;DHT22;25670;44.782;10.356;2023-01-09T18:22:44;6.20;99.90
39983;DHT22;25670;44.782;10.356;2023-01-09T18:25:11;6.10;99.90
39983;DHT22;25670;44.782;10.356;2023-01-09T18:27:37;6.00;99.90
39983;DHT22;25670;44.782;10.356;2023-01-09T18:30:05;6.00;99.90
39983;DHT22;25670;44.782;10.356;2023-01-09T18:39:51;5.70;99.90
39983;DHT22;25670;44.782;10.356;2023-01-09T18:52:03;5.80;99.90
39983;DHT22;25670;44.782;10.356;2023-01-09T18:56:56;5.80;99.90
39983;DHT22;25670;44.782;10.356;2023-01-09T19:01:49;6.10;99.90
39983;DHT22;25670;44.782;10.356;2023-01-09T19:06:42;5.20;99.90
39983;DHT22;25670;44.782;10.356;2023-01-09T19:09:09;5.60;99.90
39983;DHT22;25670;44.782;10.356;2023-01-09T19:14:03;5.60;99.90
39983;DHT22;25670;44.782;10.356;2023-01-09T19:18:57;5.60;99.90
39983;DHT22;25670;44.782;10.356;2023-01-09T19:26:24;5.80;99.90
39983;DHT22;25670;44.782;10.356;2023-01-09T19:28:52;5.80;99.90
39983;DHT22;25670;44.782;10.356;2023-01-09T19:31:23;5.90;99.90
39983;DHT22;25670;44.782;10.356;2023-01-09T19:33:51;5.80;99.90
39983;DHT22;25670;44.782;10.356;2023-01-09T19:41:15;5.70;99.90
39983;DHT22;25670;44.782;10.356;2023-01-09T19:43:44;5.80;99.90
39983;DHT22;25670;44.782;10.356;2023-01-09T19:46:18;5.80;99.90
39983;DHT22;25670;44.782;10.356;2023-01-09T19:48:46;5.80;99.90
39983;DHT22;25670;44.782;10.356;2023-01-09T19:51:14;5.80;99.90
39983;DHT22;25670;44.782;10.356;2023-01-09T19:53:41;5.80;99.90
39983;DHT22;25670;44.782;10.356;2023-01-09T19:56:22;5.50;99.90
39983;DHT22;25670;44.782;10.356;2023-01-09T19:58:59;5.50;99.90
39983;DHT22;25670;44.782;10.356;2023-01-09T20:01:33;5.40;99.90
39983;DHT22;25670;44.782;10.356;2023-01-09T20:04:01;5.30;99.90
39983;DHT22;25670;44.782;10.356;2023-01-09T20:08:58;5.10;99.90
39983;DHT22;25670;44.782;10.356;2023-01-09T20:11:31;5.10;99.90
39983;DHT22;25670;44.782;10.356;2023-01-09T20:16:31;4.90;99.90
39983;DHT22;25670;44.782;10.356;2023-01-09T20:19:03;4.70;99.90
39983;DHT22;25670;44.782;10.356;2023-01-09T20:24:03;3.80;99.90
39983;DHT22;25670;44.782;10.356;2023-01-09T20:27:40;4.20;99.90
39983;DHT22;25670;44.782;10.356;2023-01-09T20:35:41;3.70;99.90
39983;DHT22;25670;44.782;10.356;2023-01-09T20:43:11;3.60;99.90
39983;DHT22;25670;44.782;10.356;2023-01-09T20:45:38;3.80;99.90
39983;DHT22;25670;44.782;10.356;2023-01-09T20:53:16;3.70;99.90
39983;DHT22;25670;44.782;10.356;2023-01-09T21:00:39;3.60;99.90
39983;DHT22;25670;44.782;10.356;2023-01-09T21:03:11;3.50;99.90
39983;DHT22;25670;44.782;10.356;2023-01-09T21:05:41;3.50;99.90
39983;DHT22;25670;44.782;10.356;2023-01-09T21:08:11;3.60;99.90
39983;DHT22;25670;44.782;10.356;2023-01-09T21:20:47;3.90;99.90
39983;DHT22;25670;44.782;10.356;2023-01-09T21:23:22;3.80;99.90
39983;DHT22;25670;44.782;10.356;2023-01-09T21:31:07;3.70;99.90
39983;DHT22;25670;44.782;10.356;2023-01-09T21:49:48;3.80;99.90
39983;DHT22;25670;44.782;10.356;2023-01-09T21:52:16;3.80;99.90
39983;DHT22;25670;44.782;10.356;2023-01-09T22:02:49;3.50;99.90
39983;DHT22;25670;44.782;10.356;2023-01-09T22:05:16;3.40;99.90
39983;DHT22;25670;44.782;10.356;2023-01-09T22:10:13;3.10;99.90
39983;DHT22;25670;44.782;10.356;2023-01-09T22:20:38;3.00;99.90
39983;DHT22;25670;44.782;10.356;2023-01-09T22:28:00;3.20;99.90
39983;DHT22;25670;44.782;10.356;2023-01-09T22:35:23;3.20;99.90
39983;DHT22;25670;44.782;10.356;2023-01-09T22:50:10;4.50;99.90
39983;DHT22;25670;44.782;10.356;2023-01-09T22:55:08;4.90;99.90
39983;DHT22;25670;44.782;10.356;2023-01-09T22:57:34;4.90;99.90
39983;DHT22;25670;44.782;10.356;2023-01-09T23:00:06;5.00;99.90
39983;DHT22;25670;44.782;10.356;2023-01-09T23:36:54;4.80;99.90
39983;DHT22;25670;44.782;10.356;2023-01-09T23:54:34;3.80;99.90
